sensor_id;sensor_type;location;lat;lon;timestamp;temperature;humidity
21563;DHT22;10942;47.894;11.424;2022-10-18T00:01:41;10.40;99.90
21563;DHT22;10942;47.894;11.424;2022-10-18T00:04:07;10.40;99.90
21563;DHT22;10942;47.894;11.424;2022-10-18T00:06:33;10.30;99.90
21563;DHT22;10942;47.894;11.424;2022-10-18T00:08:58;10.20;99.90
21563;DHT22;10942;47.894;11.424;2022-10-18T00:11:24;10.20;99.90
21563;DHT22;10942;47.894;11.424;2022-10-18T00:13:50;10.30;99.90
21563;DHT22;10942;47.894;11.424;2022-10-18T00:16:17;10.20;99.90
21563;DHT22;10942;47.894;11.424;2022-10-18T00:18:43;10.20;99.90
21563;DHT22;10942;47.894;11.424;2022-10-18T00:21:15;10.20;99.90
21563;DHT22;10942;47.894;11.424;2022-10-18T00:23:41;10.20;99.90
21563;DHT22;10942;47.894;11.424;2022-10-18T00:26:15;10.20;99.90
21563;DHT22;10942;47.894;11.424;2022-10-18T00:28:42;10.20;99.90
21563;DHT22;10942;47.894;11.424;2022-10-18T00:33:43;10.20;99.90
21563;DHT22;10942;47.894;11.424;2022-10-18T00:36:10;10.10;99.90
21563;DHT22;10942;47.894;11.424;2022-10-18T00:38:36;10.10;99.90
21563;DHT22;10942;47.894;11.424;2022-10-18T00:41:04;10.10;99.90
21563;DHT22;10942;47.894;11.424;2022-10-18T00:43:30;10.10;99.90
21563;DHT22;10942;47.894;11.424;2022-10-18T00:45:56;10.10;99.90
21563;DHT22;10942;47.894;11.424;2022-10-18T00:48:21;10.10;99.90
21563;DHT22;10942;47.894;11.424;2022-10-18T00:50:49;10.10;99.90
21563;DHT22;10942;47.894;11.424;2022-10-18T00:53:18;10.10;99.90
21563;DHT22;10942;47.894;11.424;2022-10-18T00:55:44;10.10;99.90
21563;DHT22;10942;47.894;11.424;2022-10-18T00:58:12;10.00;99.90
21563;DHT22;10942;47.894;11.424;2022-10-18T01:00:39;10.00;99.90
21563;DHT22;10942;47.894;11.424;2022-10-18T01:03:06;9.90;99.90
21563;DHT22;10942;47.894;11.424;2022-10-18T01:05:36;9.90;99.90
21563;DHT22;10942;47.894;11.424;2022-10-18T01:16:26;9.80;99.90
21563;DHT22;10942;47.894;11.424;2022-10-18T01:19:04;9.80;99.90
21563;DHT22;10942;47.894;11.424;2022-10-18T01:24:58;9.70;99.90
21563;DHT22;10942;47.894;11.424;2022-10-18T01:32:51;9.70;99.90
21563;DHT22;10942;47.894;11.424;2022-10-18T01:35:24;9.70;99.90
21563;DHT22;10942;47.894;11.424;2022-10-18T01:37:51;9.70;99.90
21563;DHT22;10942;47.894;11.424;2022-10-18T01:40:19;9.60;99.90
21563;DHT22;10942;47.894;11.424;2022-10-18T01:42:47;9.60;99.90
21563;DHT22;10942;47.894;11.424;2022-10-18T01:45:15;9.60;99.90
21563;DHT22;10942;47.894;11.424;2022-10-18T01:47:45;9.50;99.90
21563;DHT22;10942;47.894;11.424;2022-10-18T01:50:12;9.40;99.90
21563;DHT22;10942;47.894;11.424;2022-10-18T01:52:51;9.40;99.90
21563;DHT22;10942;47.894;11.424;2022-10-18T01:55:17;9.40;99.90
21563;DHT22;10942;47.894;11.424;2022-10-18T01:57:59;9.40;99.90
21563;DHT22;10942;47.894;11.424;2022-10-18T02:00:39;9.40;99.90
21563;DHT22;10942;47.894;11.424;2022-10-18T02:03:15;9.30;99.90
21563;DHT22;10942;47.894;11.424;2022-10-18T02:08:34;9.30;99.90
21563;DHT22;10942;47.894;11.424;2022-10-18T02:11:13;9.30;99.90
21563;DHT22;10942;47.894;11.424;2022-10-18T02:13:50;9.40;99.90
21563;DHT22;10942;47.894;11.424;2022-10-18T02:16:36;9.30;99.90
21563;DHT22;10942;47.894;11.424;2022-10-18T02:19:17;9.30;99.90
21563;DHT22;10942;47.894;11.424;2022-10-18T02:21:45;9.20;99.90
21563;DHT22;10942;47.894;11.424;2022-10-18T02:24:13;9.20;99.90
21563;DHT22;10942;47.894;11.424;2022-10-18T02:26:39;9.20;99.90
21563;DHT22;10942;47.894;11.424;2022-10-18T02:29:06;9.20;99.90
21563;DHT22;10942;47.894;11.424;2022-10-18T02:31:44;9.20;99.90
21563;DHT22;10942;47.894;11.424;2022-10-18T02:34:28;9.10;99.90
21563;DHT22;10942;47.894;11.424;2022-10-18T02:36:59;9.20;99.90
21563;DHT22;10942;47.894;11.424;2022-10-18T02:39:45;9.10;99.90
21563;DHT22;10942;47.894;11.424;2022-10-18T02:42:13;9.10;99.90
21563;DHT22;10942;47.894;11.424;2022-10-18T02:47:07;9.00;99.90
21563;DHT22;10942;47.894;11.424;2022-10-18T02:49:33;9.00;99.90
21563;DHT22;10942;47.894;11.424;2022-10-18T02:51:58;9.00;99.90
21563;DHT22;10942;47.894;11.424;2022-10-18T02:54:24;9.10;99.90
21563;DHT22;10942;47.894;11.424;2022-10-18T02:56:50;9.10;99.90
21563;DHT22;10942;47.894;11.424;2022-10-18T03:01:42;9.00;99.90
21563;DHT22;10942;47.894;11.424;2022-10-18T03:04:08;9.00;99.90
21563;DHT22;10942;47.894;11.424;2022-10-18T03:11:31;8.70;99.90
21563;DHT22;10942;47.894;11.424;2022-10-18T03:13:56;8.70;99.90
21563;DHT22;10942;47.894;11.424;2022-10-18T03:16:22;8.70;99.90
21563;DHT22;10942;47.894;11.424;2022-10-18T03:18:48;8.60;99.90
21563;DHT22;10942;47.894;11.424;2022-10-18T03:21:13;8.50;99.90
21563;DHT22;10942;47.894;11.424;2022-10-18T03:23:39;8.60;99.90
21563;DHT22;10942;47.894;11.424;2022-10-18T03:26:07;8.60;99.90
21563;DHT22;10942;47.894;11.424;2022-10-18T03:28:32;8.50;99.90
21563;DHT22;10942;47.894;11.424;2022-10-18T03:31:00;8.60;99.90
21563;DHT22;10942;47.894;11.424;2022-10-18T03:33:26;8.60;99.90
21563;DHT22;10942;47.894;11.424;2022-10-18T03:35:52;8.60;99.90
21563;DHT22;10942;47.894;11.424;2022-10-18T03:38:18;8.60;99.90
21563;DHT22;10942;47.894;11.424;2022-10-18T03:40:43;8.60;99.90
21563;DHT22;10942;47.894;11.424;2022-10-18T03:43:09;8.60;99.90
21563;DHT22;10942;47.894;11.424;2022-10-18T03:45:34;8.60;99.90
21563;DHT22;10942;47.894;11.424;2022-10-18T03:48:00;8.60;99.90
21563;DHT22;10942;47.894;11.424;2022-10-18T03:50:26;8.60;99.90
21563;DHT22;10942;47.894;11.424;2022-10-18T03:52:51;8.60;99.90
21563;DHT22;10942;47.894;11.424;2022-10-18T03:55:19;8.60;99.90
21563;DHT22;10942;47.894;11.424;2022-10-18T03:57:44;8.60;99.90
21563;DHT22;10942;47.894;11.424;2022-10-18T04:00:10;8.60;99.90
21563;DHT22;10942;47.894;11.424;2022-10-18T04:02:39;8.50;99.90
21563;DHT22;10942;47.894;11.424;2022-10-18T04:05:05;8.50;99.90
21563;DHT22;10942;47.894;11.424;2022-10-18T04:07:32;8.40;99.90
21563;DHT22;10942;47.894;11.424;2022-10-18T04:09:58;8.40;99.90
21563;DHT22;10942;47.894;11.424;2022-10-18T04:12:24;8.30;99.90
21563;DHT22;10942;47.894;11.424;2022-10-18T04:14:50;8.30;99.90
21563;DHT22;10942;47.894;11.424;2022-10-18T04:17:15;8.20;99.90
21563;DHT22;10942;47.894;11.424;2022-10-18T04:19:41;8.20;99.90
21563;DHT22;10942;47.894;11.424;2022-10-18T04:22:07;8.10;99.90
21563;DHT22;10942;47.894;11.424;2022-10-18T04:24:33;8.00;99.90
21563;DHT22;10942;47.894;11.424;2022-10-18T04:26:59;8.00;99.90
21563;DHT22;10942;47.894;11.424;2022-10-18T04:29:24;8.00;99.90
21563;DHT22;10942;47.894;11.424;2022-10-18T04:31:50;8.00;99.90
21563;DHT22;10942;47.894;11.424;2022-10-18T04:34:16;8.00;99.90
21563;DHT22;10942;47.894;11.424;2022-10-18T04:36:41;8.00;99.90
21563;DHT22;10942;47.894;11.424;2022-10-18T04:39:07;8.10;99.90
21563;DHT22;10942;47.894;11.424;2022-10-18T04:41:33;8.10;99.90
21563;DHT22;10942;47.894;11.424;2022-10-18T04:43:58;8.10;99.90
21563;DHT22;10942;47.894;11.424;2022-10-18T04:46:24;8.10;99.90
21563;DHT22;10942;47.894;11.424;2022-10-18T04:48:50;8.10;99.90
21563;DHT22;10942;47.894;11.424;2022-10-18T04:51:15;8.10;99.90
21563;DHT22;10942;47.894;11.424;2022-10-18T04:53:41;8.20;99.90
21563;DHT22;10942;47.894;11.424;2022-10-18T04:56:07;8.20;99.90
21563;DHT22;10942;47.894;11.424;2022-10-18T04:58:33;8.20;99.90
21563;DHT22;10942;47.894;11.424;2022-10-18T05:00:58;8.20;99.90
21563;DHT22;10942;47.894;11.424;2022-10-18T05:03:24;8.20;99.90
21563;DHT22;10942;47.894;11.424;2022-10-18T05:05:50;8.20;99.90
21563;DHT22;10942;47.894;11.424;2022-10-18T05:08:15;8.20;99.90
21563;DHT22;10942;47.894;11.424;2022-10-18T05:10:41;8.20;99.90
21563;DHT22;10942;47.894;11.424;2022-10-18T05:13:07;8.30;99.90
21563;DHT22;10942;47.894;11.424;2022-10-18T05:15:32;8.30;99.90
21563;DHT22;10942;47.894;11.424;2022-10-18T05:17:58;8.30;99.90
21563;DHT22;10942;47.894;11.424;2022-10-18T05:20:24;8.30;99.90
21563;DHT22;10942;47.894;11.424;2022-10-18T05:22:49;8.40;99.90
21563;DHT22;10942;47.894;11.424;2022-10-18T05:25:15;8.40;99.90
21563;DHT22;10942;47.894;11.424;2022-10-18T05:27:41;8.40;99.90
21563;DHT22;10942;47.894;11.424;2022-10-18T05:30:07;8.50;99.90
21563;DHT22;10942;47.894;11.424;2022-10-18T05:32:32;8.40;99.90
21563;DHT22;10942;47.894;11.424;2022-10-18T05:34:58;8.50;99.90
21563;DHT22;10942;47.894;11.424;2022-10-18T05:37:24;8.50;99.90
21563;DHT22;10942;47.894;11.424;2022-10-18T05:39:49;8.60;99.90
21563;DHT22;10942;47.894;11.424;2022-10-18T05:42:15;8.60;99.90
21563;DHT22;10942;47.894;11.424;2022-10-18T05:44:41;8.70;99.90
21563;DHT22;10942;47.894;11.424;2022-10-18T05:47:06;8.70;99.90
21563;DHT22;10942;47.894;11.424;2022-10-18T05:49:32;8.60;99.90
21563;DHT22;10942;47.894;11.424;2022-10-18T05:51:57;8.40;99.90
21563;DHT22;10942;47.894;11.424;2022-10-18T05:54:23;8.40;99.90
21563;DHT22;10942;47.894;11.424;2022-10-18T05:56:49;8.50;99.90
21563;DHT22;10942;47.894;11.424;2022-10-18T05:59:15;8.60;99.90
21563;DHT22;10942;47.894;11.424;2022-10-18T06:01:41;8.70;99.90
21563;DHT22;10942;47.894;11.424;2022-10-18T06:04:08;8.80;99.90
21563;DHT22;10942;47.894;11.424;2022-10-18T06:06:38;9.00;99.90
21563;DHT22;10942;47.894;11.424;2022-10-18T06:09:05;9.00;99.90
21563;DHT22;10942;47.894;11.424;2022-10-18T06:11:31;9.10;99.90
21563;DHT22;10942;47.894;11.424;2022-10-18T06:13:57;9.10;99.90
21563;DHT22;10942;47.894;11.424;2022-10-18T06:16:23;9.20;99.90
21563;DHT22;10942;47.894;11.424;2022-10-18T06:18:51;9.50;99.90
21563;DHT22;10942;47.894;11.424;2022-10-18T06:21:17;9.70;99.90
21563;DHT22;10942;47.894;11.424;2022-10-18T06:23:47;9.60;99.90
21563;DHT22;10942;47.894;11.424;2022-10-18T06:26:12;9.80;99.90
21563;DHT22;10942;47.894;11.424;2022-10-18T06:28:38;9.80;99.90
21563;DHT22;10942;47.894;11.424;2022-10-18T06:31:05;9.80;99.90
21563;DHT22;10942;47.894;11.424;2022-10-18T06:33:31;9.90;99.90
21563;DHT22;10942;47.894;11.424;2022-10-18T06:35:59;10.00;99.90
21563;DHT22;10942;47.894;11.424;2022-10-18T06:38:27;10.00;99.90
21563;DHT22;10942;47.894;11.424;2022-10-18T06:40:53;10.00;99.90
21563;DHT22;10942;47.894;11.424;2022-10-18T06:43:19;10.00;99.90
21563;DHT22;10942;47.894;11.424;2022-10-18T06:45:44;10.10;99.90
21563;DHT22;10942;47.894;11.424;2022-10-18T06:48:10;10.20;99.90
21563;DHT22;10942;47.894;11.424;2022-10-18T06:50:36;10.20;99.90
21563;DHT22;10942;47.894;11.424;2022-10-18T06:53:02;10.20;99.90
21563;DHT22;10942;47.894;11.424;2022-10-18T06:55:30;10.30;99.90
21563;DHT22;10942;47.894;11.424;2022-10-18T06:57:56;10.40;99.90
21563;DHT22;10942;47.894;11.424;2022-10-18T07:00:22;10.40;99.90
21563;DHT22;10942;47.894;11.424;2022-10-18T07:02:48;10.60;99.90
21563;DHT22;10942;47.894;11.424;2022-10-18T07:05:13;10.60;99.90
21563;DHT22;10942;47.894;11.424;2022-10-18T07:07:39;10.70;99.90
21563;DHT22;10942;47.894;11.424;2022-10-18T07:10:05;10.80;99.90
21563;DHT22;10942;47.894;11.424;2022-10-18T07:12:32;10.90;99.90
21563;DHT22;10942;47.894;11.424;2022-10-18T07:14:57;11.10;99.90
21563;DHT22;10942;47.894;11.424;2022-10-18T07:17:23;11.20;99.90
21563;DHT22;10942;47.894;11.424;2022-10-18T07:19:49;11.40;99.90
21563;DHT22;10942;47.894;11.424;2022-10-18T07:22:15;11.80;99.90
21563;DHT22;10942;47.894;11.424;2022-10-18T07:24:41;12.30;99.90
21563;DHT22;10942;47.894;11.424;2022-10-18T07:27:06;12.60;99.90
21563;DHT22;10942;47.894;11.424;2022-10-18T07:29:33;12.70;99.90
21563;DHT22;10942;47.894;11.424;2022-10-18T07:31:59;12.70;99.90
21563;DHT22;10942;47.894;11.424;2022-10-18T07:34:24;12.80;99.90
21563;DHT22;10942;47.894;11.424;2022-10-18T07:36:50;12.80;99.90
21563;DHT22;10942;47.894;11.424;2022-10-18T07:39:16;12.80;99.90
21563;DHT22;10942;47.894;11.424;2022-10-18T07:41:41;12.80;99.90
21563;DHT22;10942;47.894;11.424;2022-10-18T07:44:07;12.90;99.90
21563;DHT22;10942;47.894;11.424;2022-10-18T07:46:33;13.00;99.90
21563;DHT22;10942;47.894;11.424;2022-10-18T07:48:59;12.90;99.90
21563;DHT22;10942;47.894;11.424;2022-10-18T07:51:25;13.00;99.90
21563;DHT22;10942;47.894;11.424;2022-10-18T07:53:52;13.00;99.90
21563;DHT22;10942;47.894;11.424;2022-10-18T07:56:19;13.10;99.90
21563;DHT22;10942;47.894;11.424;2022-10-18T07:58:47;13.40;99.90
21563;DHT22;10942;47.894;11.424;2022-10-18T08:01:16;13.70;99.90
21563;DHT22;10942;47.894;11.424;2022-10-18T08:03:42;14.00;99.90
21563;DHT22;10942;47.894;11.424;2022-10-18T08:06:10;14.40;99.90
21563;DHT22;10942;47.894;11.424;2022-10-18T08:08:37;14.50;99.90
21563;DHT22;10942;47.894;11.424;2022-10-18T08:11:09;14.60;99.90
21563;DHT22;10942;47.894;11.424;2022-10-18T08:13:35;14.60;99.90
21563;DHT22;10942;47.894;11.424;2022-10-18T08:16:04;14.60;99.90
21563;DHT22;10942;47.894;11.424;2022-10-18T08:18:30;14.70;99.90
21563;DHT22;10942;47.894;11.424;2022-10-18T08:20:59;14.60;99.90
21563;DHT22;10942;47.894;11.424;2022-10-18T08:23:25;14.60;99.90
21563;DHT22;10942;47.894;11.424;2022-10-18T08:25:51;14.60;99.90
21563;DHT22;10942;47.894;11.424;2022-10-18T08:28:16;14.60;99.90
21563;DHT22;10942;47.894;11.424;2022-10-18T08:30:42;14.70;99.90
21563;DHT22;10942;47.894;11.424;2022-10-18T08:33:08;14.70;99.90
21563;DHT22;10942;47.894;11.424;2022-10-18T08:35:34;14.80;99.90
21563;DHT22;10942;47.894;11.424;2022-10-18T08:38:00;14.80;99.90
21563;DHT22;10942;47.894;11.424;2022-10-18T08:40:26;14.80;99.90
21563;DHT22;10942;47.894;11.424;2022-10-18T08:45:52;15.10;99.90
21563;DHT22;10942;47.894;11.424;2022-10-18T08:48:42;15.20;99.90
21563;DHT22;10942;47.894;11.424;2022-10-18T08:51:42;15.20;99.90
21563;DHT22;10942;47.894;11.424;2022-10-18T08:54:17;15.20;99.90
21563;DHT22;10942;47.894;11.424;2022-10-18T08:56:53;15.20;99.90
21563;DHT22;10942;47.894;11.424;2022-10-18T08:59:20;15.40;99.90
21563;DHT22;10942;47.894;11.424;2022-10-18T09:02:03;15.60;99.90
21563;DHT22;10942;47.894;11.424;2022-10-18T09:09:45;16.30;99.90
21563;DHT22;10942;47.894;11.424;2022-10-18T09:20:21;17.80;99.90
21563;DHT22;10942;47.894;11.424;2022-10-18T09:22:55;18.00;99.90
21563;DHT22;10942;47.894;11.424;2022-10-18T09:25:34;18.10;99.90
21563;DHT22;10942;47.894;11.424;2022-10-18T09:28:14;18.40;99.90
21563;DHT22;10942;47.894;11.424;2022-10-18T09:36:04;19.30;99.90
21563;DHT22;10942;47.894;11.424;2022-10-18T09:38:37;19.80;99.90
21563;DHT22;10942;47.894;11.424;2022-10-18T09:41:27;20.30;99.90
21563;DHT22;10942;47.894;11.424;2022-10-18T09:44:05;21.00;99.90
21563;DHT22;10942;47.894;11.424;2022-10-18T09:46:38;21.70;99.90
21563;DHT22;10942;47.894;11.424;2022-10-18T09:51:38;23.70;99.90
21563;DHT22;10942;47.894;11.424;2022-10-18T09:54:45;23.80;99.90
21563;DHT22;10942;47.894;11.424;2022-10-18T09:57:29;23.40;99.90
21563;DHT22;10942;47.894;11.424;2022-10-18T09:59:57;22.60;99.90
21563;DHT22;10942;47.894;11.424;2022-10-18T10:02:24;21.90;99.90
21563;DHT22;10942;47.894;11.424;2022-10-18T10:04:51;21.60;99.90
21563;DHT22;10942;47.894;11.424;2022-10-18T10:07:23;21.20;99.90
21563;DHT22;10942;47.894;11.424;2022-10-18T10:09:58;21.30;99.90
21563;DHT22;10942;47.894;11.424;2022-10-18T10:12:25;21.40;99.90
21563;DHT22;10942;47.894;11.424;2022-10-18T10:14:52;21.50;99.90
21563;DHT22;10942;47.894;11.424;2022-10-18T10:17:24;21.50;99.90
21563;DHT22;10942;47.894;11.424;2022-10-18T10:20:01;21.50;99.90
21563;DHT22;10942;47.894;11.424;2022-10-18T10:22:49;21.50;99.90
21563;DHT22;10942;47.894;11.424;2022-10-18T10:25:20;21.50;99.90
21563;DHT22;10942;47.894;11.424;2022-10-18T10:27:47;21.30;99.90
21563;DHT22;10942;47.894;11.424;2022-10-18T10:30:33;21.30;99.90
21563;DHT22;10942;47.894;11.424;2022-10-18T10:33:00;21.40;99.90
21563;DHT22;10942;47.894;11.424;2022-10-18T10:35:34;21.40;99.90
21563;DHT22;10942;47.894;11.424;2022-10-18T10:38:01;21.50;99.90
21563;DHT22;10942;47.894;11.424;2022-10-18T10:40:28;21.60;99.90
21563;DHT22;10942;47.894;11.424;2022-10-18T10:48:21;21.60;99.90
21563;DHT22;10942;47.894;11.424;2022-10-18T10:53:47;21.50;99.90
21563;DHT22;10942;47.894;11.424;2022-10-18T10:56:21;21.50;99.90
21563;DHT22;10942;47.894;11.424;2022-10-18T10:58:48;21.30;99.90
21563;DHT22;10942;47.894;11.424;2022-10-18T11:01:29;21.40;99.90
21563;DHT22;10942;47.894;11.424;2022-10-18T11:03:59;21.30;99.90
21563;DHT22;10942;47.894;11.424;2022-10-18T11:06:46;21.20;99.90
21563;DHT22;10942;47.894;11.424;2022-10-18T11:09:57;21.20;99.90
21563;DHT22;10942;47.894;11.424;2022-10-18T11:12:38;21.20;99.90
21563;DHT22;10942;47.894;11.424;2022-10-18T11:18:21;21.30;99.90
21563;DHT22;10942;47.894;11.424;2022-10-18T11:20:55;21.30;99.90
21563;DHT22;10942;47.894;11.424;2022-10-18T11:23:29;21.30;99.90
21563;DHT22;10942;47.894;11.424;2022-10-18T11:43:25;21.20;99.90
21563;DHT22;10942;47.894;11.424;2022-10-18T11:46:13;21.10;99.90
21563;DHT22;10942;47.894;11.424;2022-10-18T11:51:21;20.90;99.90
21563;DHT22;10942;47.894;11.424;2022-10-18T12:04:23;20.90;99.90
21563;DHT22;10942;47.894;11.424;2022-10-18T12:06:53;20.80;99.90
21563;DHT22;10942;47.894;11.424;2022-10-18T12:09:40;20.90;99.90
21563;DHT22;10942;47.894;11.424;2022-10-18T12:12:23;20.80;99.90
21563;DHT22;10942;47.894;11.424;2022-10-18T12:15:02;20.90;99.90
21563;DHT22;10942;47.894;11.424;2022-10-18T12:19:57;20.90;99.90
21563;DHT22;10942;47.894;11.424;2022-10-18T12:22:37;20.90;99.90
21563;DHT22;10942;47.894;11.424;2022-10-18T12:25:08;20.90;99.90
21563;DHT22;10942;47.894;11.424;2022-10-18T12:33:30;20.90;99.90
21563;DHT22;10942;47.894;11.424;2022-10-18T12:38:48;20.90;99.90
21563;DHT22;10942;47.894;11.424;2022-10-18T12:41:20;20.80;99.90
21563;DHT22;10942;47.894;11.424;2022-10-18T12:43:59;20.80;99.90
21563;DHT22;10942;47.894;11.424;2022-10-18T12:46:46;20.80;99.90
21563;DHT22;10942;47.894;11.424;2022-10-18T12:49:17;20.80;99.90
21563;DHT22;10942;47.894;11.424;2022-10-18T12:51:53;20.80;99.90
21563;DHT22;10942;47.894;11.424;2022-10-18T12:54:27;20.80;99.90
21563;DHT22;10942;47.894;11.424;2022-10-18T12:56:53;20.80;99.90
21563;DHT22;10942;47.894;11.424;2022-10-18T13:09:34;20.80;99.90
21563;DHT22;10942;47.894;11.424;2022-10-18T13:17:42;20.80;99.90
21563;DHT22;10942;47.894;11.424;2022-10-18T13:20:26;20.70;99.90
21563;DHT22;10942;47.894;11.424;2022-10-18T13:23:22;20.60;99.90
21563;DHT22;10942;47.894;11.424;2022-10-18T13:34:30;20.30;99.90
21563;DHT22;10942;47.894;11.424;2022-10-18T13:39:33;20.40;99.90
21563;DHT22;10942;47.894;11.424;2022-10-18T13:44:35;20.50;99.90
21563;DHT22;10942;47.894;11.424;2022-10-18T13:49:51;20.60;99.90
21563;DHT22;10942;47.894;11.424;2022-10-18T13:52:45;20.70;99.90
21563;DHT22;10942;47.894;11.424;2022-10-18T13:55:47;20.90;99.90
21563;DHT22;10942;47.894;11.424;2022-10-18T14:03:52;21.00;99.90
21563;DHT22;10942;47.894;11.424;2022-10-18T14:06:27;20.90;99.90
21563;DHT22;10942;47.894;11.424;2022-10-18T14:09:21;20.90;99.90
21563;DHT22;10942;47.894;11.424;2022-10-18T14:11:49;20.90;99.90
21563;DHT22;10942;47.894;11.424;2022-10-18T14:20:22;20.70;99.90
21563;DHT22;10942;47.894;11.424;2022-10-18T14:23:03;20.70;99.90
21563;DHT22;10942;47.894;11.424;2022-10-18T14:25:34;20.60;99.90
21563;DHT22;10942;47.894;11.424;2022-10-18T14:30:29;20.50;99.90
21563;DHT22;10942;47.894;11.424;2022-10-18T14:32:55;20.40;99.90
21563;DHT22;10942;47.894;11.424;2022-10-18T14:35:26;20.30;99.90
21563;DHT22;10942;47.894;11.424;2022-10-18T14:37:53;20.20;99.90
21563;DHT22;10942;47.894;11.424;2022-10-18T14:40:36;20.20;99.90
21563;DHT22;10942;47.894;11.424;2022-10-18T14:43:11;20.10;99.90
21563;DHT22;10942;47.894;11.424;2022-10-18T14:45:37;20.10;99.90
21563;DHT22;10942;47.894;11.424;2022-10-18T14:50:39;19.90;99.90
21563;DHT22;10942;47.894;11.424;2022-10-18T14:53:06;19.90;99.90
21563;DHT22;10942;47.894;11.424;2022-10-18T14:55:33;19.90;99.90
21563;DHT22;10942;47.894;11.424;2022-10-18T14:58:00;19.80;99.90
21563;DHT22;10942;47.894;11.424;2022-10-18T15:00:34;19.80;99.90
21563;DHT22;10942;47.894;11.424;2022-10-18T15:03:01;19.70;99.90
21563;DHT22;10942;47.894;11.424;2022-10-18T15:05:28;19.70;99.90
21563;DHT22;10942;47.894;11.424;2022-10-18T15:07:54;19.60;99.90
21563;DHT22;10942;47.894;11.424;2022-10-18T15:10:24;19.50;99.90
21563;DHT22;10942;47.894;11.424;2022-10-18T15:12:52;19.50;99.90
21563;DHT22;10942;47.894;11.424;2022-10-18T15:15:24;19.30;99.90
21563;DHT22;10942;47.894;11.424;2022-10-18T15:17:52;19.20;99.90
21563;DHT22;10942;47.894;11.424;2022-10-18T15:22:44;19.00;99.90
21563;DHT22;10942;47.894;11.424;2022-10-18T15:27:42;18.60;99.90
21563;DHT22;10942;47.894;11.424;2022-10-18T15:30:17;18.40;99.90
21563;DHT22;10942;47.894;11.424;2022-10-18T15:32:49;18.30;99.90
21563;DHT22;10942;47.894;11.424;2022-10-18T15:37:46;17.90;99.90
21563;DHT22;10942;47.894;11.424;2022-10-18T15:42:58;17.70;99.90
21563;DHT22;10942;47.894;11.424;2022-10-18T15:48:20;17.60;99.90
21563;DHT22;10942;47.894;11.424;2022-10-18T15:50:55;17.60;99.90
21563;DHT22;10942;47.894;11.424;2022-10-18T15:56:01;17.50;99.90
21563;DHT22;10942;47.894;11.424;2022-10-18T15:58:45;17.50;99.90
21563;DHT22;10942;47.894;11.424;2022-10-18T16:01:17;17.60;99.90
21563;DHT22;10942;47.894;11.424;2022-10-18T16:03:45;17.50;99.90
21563;DHT22;10942;47.894;11.424;2022-10-18T16:06:12;17.50;99.90
21563;DHT22;10942;47.894;11.424;2022-10-18T16:08:43;17.50;99.90
21563;DHT22;10942;47.894;11.424;2022-10-18T16:13:43;17.30;99.90
21563;DHT22;10942;47.894;11.424;2022-10-18T16:16:29;17.30;99.90
21563;DHT22;10942;47.894;11.424;2022-10-18T16:18:55;17.40;99.90
21563;DHT22;10942;47.894;11.424;2022-10-18T16:21:25;17.30;99.90
21563;DHT22;10942;47.894;11.424;2022-10-18T16:23:52;17.30;99.90
21563;DHT22;10942;47.894;11.424;2022-10-18T16:26:18;17.30;99.90
21563;DHT22;10942;47.894;11.424;2022-10-18T16:28:45;17.20;99.90
21563;DHT22;10942;47.894;11.424;2022-10-18T16:31:22;17.20;99.90
21563;DHT22;10942;47.894;11.424;2022-10-18T16:33:49;17.20;99.90
21563;DHT22;10942;47.894;11.424;2022-10-18T16:36:17;17.20;99.90
21563;DHT22;10942;47.894;11.424;2022-10-18T16:38:44;17.10;99.90
21563;DHT22;10942;47.894;11.424;2022-10-18T16:41:10;17.10;99.90
21563;DHT22;10942;47.894;11.424;2022-10-18T16:43:38;17.10;99.90
21563;DHT22;10942;47.894;11.424;2022-10-18T16:46:05;17.00;99.90
21563;DHT22;10942;47.894;11.424;2022-10-18T16:48:32;17.10;99.90
21563;DHT22;10942;47.894;11.424;2022-10-18T16:50:58;17.00;99.90
21563;DHT22;10942;47.894;11.424;2022-10-18T16:53:24;17.00;99.90
21563;DHT22;10942;47.894;11.424;2022-10-18T16:55:56;17.10;99.90
21563;DHT22;10942;47.894;11.424;2022-10-18T16:58:22;17.00;99.90
21563;DHT22;10942;47.894;11.424;2022-10-18T17:00:49;17.00;99.90
21563;DHT22;10942;47.894;11.424;2022-10-18T17:03:15;17.00;99.90
21563;DHT22;10942;47.894;11.424;2022-10-18T17:05:41;17.00;99.90
21563;DHT22;10942;47.894;11.424;2022-10-18T17:08:15;17.00;99.90
21563;DHT22;10942;47.894;11.424;2022-10-18T17:10:42;17.00;99.90
21563;DHT22;10942;47.894;11.424;2022-10-18T17:13:07;16.80;99.90
21563;DHT22;10942;47.894;11.424;2022-10-18T17:15:33;16.90;99.90
21563;DHT22;10942;47.894;11.424;2022-10-18T17:17:58;16.80;99.90
21563;DHT22;10942;47.894;11.424;2022-10-18T17:20:26;16.80;99.90
21563;DHT22;10942;47.894;11.424;2022-10-18T17:22:52;16.80;99.90
21563;DHT22;10942;47.894;11.424;2022-10-18T17:25:19;16.80;99.90
21563;DHT22;10942;47.894;11.424;2022-10-18T17:27:45;16.80;99.90
21563;DHT22;10942;47.894;11.424;2022-10-18T17:30:12;16.70;99.90
21563;DHT22;10942;47.894;11.424;2022-10-18T17:32:39;16.80;99.90
21563;DHT22;10942;47.894;11.424;2022-10-18T17:35:09;16.60;99.90
21563;DHT22;10942;47.894;11.424;2022-10-18T17:37:34;16.60;99.90
21563;DHT22;10942;47.894;11.424;2022-10-18T17:40:02;16.60;99.90
21563;DHT22;10942;47.894;11.424;2022-10-18T17:42:28;16.40;99.90
21563;DHT22;10942;47.894;11.424;2022-10-18T17:44:53;16.40;99.90
21563;DHT22;10942;47.894;11.424;2022-10-18T17:47:19;16.40;99.90
21563;DHT22;10942;47.894;11.424;2022-10-18T17:49:45;16.40;99.90
21563;DHT22;10942;47.894;11.424;2022-10-18T17:52:11;16.30;99.90
21563;DHT22;10942;47.894;11.424;2022-10-18T17:54:36;16.40;99.90
21563;DHT22;10942;47.894;11.424;2022-10-18T17:57:02;16.40;99.90
21563;DHT22;10942;47.894;11.424;2022-10-18T17:59:28;16.40;99.90
21563;DHT22;10942;47.894;11.424;2022-10-18T18:01:53;16.30;99.90
21563;DHT22;10942;47.894;11.424;2022-10-18T18:04:19;16.30;99.90
21563;DHT22;10942;47.894;11.424;2022-10-18T18:06:45;16.30;99.90
21563;DHT22;10942;47.894;11.424;2022-10-18T18:09:14;16.30;99.90
21563;DHT22;10942;47.894;11.424;2022-10-18T18:11:42;16.20;99.90
21563;DHT22;10942;47.894;11.424;2022-10-18T18:14:09;16.30;99.90
21563;DHT22;10942;47.894;11.424;2022-10-18T18:16:37;16.20;99.90
21563;DHT22;10942;47.894;11.424;2022-10-18T18:19:03;16.20;99.90
21563;DHT22;10942;47.894;11.424;2022-10-18T18:21:29;16.20;99.90
21563;DHT22;10942;47.894;11.424;2022-10-18T18:23:55;16.20;99.90
21563;DHT22;10942;47.894;11.424;2022-10-18T18:26:21;16.10;99.90
21563;DHT22;10942;47.894;11.424;2022-10-18T18:28:48;16.10;99.90
21563;DHT22;10942;47.894;11.424;2022-10-18T18:31:19;16.20;99.90